Hillsdale, Wyoming
Current Conditions -  °F | °C
As of 10:53 PM on Sunday 25 Jan 2015 (Local Time) from KCYS Reporting Station
Clear Clear  
Wind Chill: 40°   Ceiling: Unl
Heat Index: 46°   Visibility: 10mi
Dew Point: 24°   Wind: 15mph
Humidity: 42%   Direction: 310°NW
Pressure: 30.21"   Gusts: NA
Location:  41.21°N, 104.48°W
Report Text: KCYS 260553Z AUTO 31013KT 10SM CLR 08/M04 A3021 RMK AO2 SLP198 T00781044 10078 20039 51007
Loading
Personal Weather Stations






























Interactive Weather Map New forecast layout! Learn more

10-Day Weather Forecast

Advertisements
Track Severe Weather on mobile